createdAt,value
2022-11-08T00:01:40.297Z,97874.84
2022-11-08T00:07:00.314Z,97867.56
2022-11-08T00:12:20.175Z,97869.72
2022-11-08T00:17:21.444Z,97863.47
2022-11-08T00:22:22.744Z,97862.41
2022-11-08T00:27:24.058Z,97865.69
2022-11-08T00:32:25.351Z,97865.19
2022-11-08T00:37:26.617Z,97861.94
2022-11-08T00:42:27.878Z,97853.25
2022-11-08T00:47:29.108Z,97854.94
2022-11-08T00:52:30.309Z,97853.94
2022-11-08T00:57:53.655Z,97853.53
2022-11-08T01:03:13.257Z,97848.47
2022-11-08T01:08:14.525Z,97847.19
2022-11-08T01:13:15.913Z,97857.09
2022-11-08T01:18:17.595Z,97847.13
2022-11-08T01:23:19.548Z,97847.00
2022-11-08T01:28:21.293Z,97851.28
2022-11-08T01:33:22.686Z,97857.25
2022-11-08T01:38:23.897Z,97847.94
2022-11-08T01:43:25.105Z,97849.16
2022-11-08T01:48:26.310Z,97848.38
2022-11-08T01:53:27.527Z,97851.66
2022-11-08T01:58:28.725Z,97848.13
2022-11-08T02:03:29.946Z,97840.81
2022-11-08T02:08:31.308Z,97837.00
2022-11-08T02:13:32.518Z,97828.44
2022-11-08T02:18:33.722Z,97822.75
2022-11-08T02:23:35.133Z,97821.00
2022-11-08T02:28:36.373Z,97825.69
2022-11-08T02:33:37.703Z,97826.16
2022-11-08T02:38:38.899Z,97818.31
2022-11-08T02:43:40.147Z,97822.16
2022-11-08T02:48:41.394Z,97814.88
2022-11-08T02:53:42.630Z,97806.75
2022-11-08T02:58:43.846Z,97801.97
2022-11-08T03:03:45.111Z,97802.50
2022-11-08T03:08:46.350Z,97796.44
2022-11-08T03:13:47.556Z,97796.03
2022-11-08T03:18:48.801Z,97784.81
2022-11-08T03:23:50.206Z,97792.25
2022-11-08T03:28:51.462Z,97792.88
2022-11-08T03:33:52.684Z,97782.22
2022-11-08T03:38:53.946Z,97785.88
2022-11-08T03:43:55.143Z,97788.59
2022-11-08T03:48:56.355Z,97775.72
2022-11-08T03:53:57.565Z,97778.91
2022-11-08T03:58:58.765Z,97775.34
2022-11-08T04:03:59.982Z,97788.38
2022-11-08T04:09:01.192Z,97783.47
2022-11-08T04:14:21.306Z,97790.16
2022-11-08T04:19:41.080Z,97785.03
2022-11-08T04:24:42.291Z,97790.50
2022-11-08T04:29:52.635Z,97783.59
2022-11-08T04:34:53.886Z,97782.78
2022-11-08T04:39:55.103Z,97771.69
2022-11-08T04:44:56.324Z,97776.03
2022-11-08T04:49:57.545Z,97761.16
2022-11-08T04:54:58.752Z,97756.28
2022-11-08T04:59:59.981Z,97758.63
2022-11-08T05:05:01.180Z,97750.38
2022-11-08T05:10:02.905Z,97742.28
2022-11-08T05:15:04.211Z,97753.28
2022-11-08T05:20:24.406Z,97746.25
2022-11-08T05:25:25.604Z,97734.97
2022-11-08T05:30:26.921Z,97735.94
2022-11-08T05:35:28.219Z,97738.56
2022-11-08T05:40:33.198Z,97738.63
2022-11-08T05:45:34.810Z,97743.91
2022-11-08T05:50:36.072Z,97743.19
2022-11-08T05:55:37.328Z,97737.25
2022-11-08T06:00:38.561Z,97755.34
2022-11-08T06:05:39.872Z,97747.31
2022-11-08T06:10:41.170Z,97751.81
2022-11-08T06:15:42.412Z,97750.94
2022-11-08T06:20:43.637Z,97776.94
2022-11-08T06:25:47.505Z,97757.28
2022-11-08T06:30:48.968Z,97737.94
2022-11-08T06:35:50.191Z,97739.50
2022-11-08T06:40:51.464Z,97740.47
2022-11-08T06:45:52.673Z,97747.78
2022-11-08T06:50:53.904Z,97753.25
2022-11-08T06:55:55.196Z,97742.75
2022-11-08T07:00:56.404Z,97733.91
2022-11-08T07:06:00.106Z,97730.25
2022-11-08T07:11:01.354Z,97727.59
2022-11-08T07:16:02.591Z,97747.13
2022-11-08T07:21:03.829Z,97737.88
2022-11-08T07:26:05.078Z,97744.78
2022-11-08T07:31:06.324Z,97751.63
2022-11-08T07:36:07.529Z,97739.03
2022-11-08T07:41:08.767Z,97714.13
2022-11-08T07:46:10.044Z,97710.34
2022-11-08T07:51:11.489Z,97701.66
2022-11-08T07:56:12.758Z,97678.78
2022-11-08T08:01:14.000Z,97655.81
2022-11-08T08:06:15.257Z,97661.22
2022-11-08T08:11:16.465Z,97665.38
2022-11-08T08:16:17.724Z,97679.88
2022-11-08T08:21:18.927Z,97666.97
2022-11-08T08:26:20.141Z,97641.53
2022-11-08T08:31:21.369Z,97640.97
2022-11-08T08:36:22.614Z,97626.34
2022-11-08T08:41:23.817Z,97621.84
2022-11-08T08:46:25.055Z,97611.66
2022-11-08T08:51:26.281Z,97608.41
2022-11-08T08:56:27.505Z,97596.28
2022-11-08T09:01:44.065Z,97600.63
2022-11-08T09:06:45.299Z,97616.91
2022-11-08T09:11:46.597Z,97631.63
2022-11-08T09:16:47.843Z,97640.94
2022-11-08T09:21:49.085Z,97641.16
2022-11-08T09:26:50.392Z,97634.69
2022-11-08T09:31:51.593Z,97645.63
2022-11-08T09:36:52.866Z,97662.88
2022-11-08T09:41:55.636Z,97662.13
2022-11-08T09:46:57.169Z,97670.81
2022-11-08T09:51:58.385Z,97669.44
2022-11-08T09:56:59.692Z,97646.66
2022-11-08T10:02:01.054Z,97635.41
2022-11-08T10:07:03.040Z,97631.81
2022-11-08T10:12:04.478Z,97620.00
2022-11-08T10:17:05.697Z,97627.84
2022-11-08T10:22:06.945Z,97633.63
2022-11-08T10:27:08.249Z,97625.97
2022-11-08T10:32:09.445Z,97625.94
2022-11-08T10:37:10.654Z,97630.56
2022-11-08T10:42:11.862Z,97628.44
2022-11-08T10:47:13.108Z,97629.88
2022-11-08T10:52:14.361Z,97627.13
2022-11-08T10:57:15.645Z,97626.91
2022-11-08T11:02:16.900Z,97621.91
2022-11-08T11:07:18.227Z,97624.50
2022-11-08T11:12:19.465Z,97615.56
2022-11-08T11:17:20.724Z,97606.31
2022-11-08T11:22:21.994Z,97605.94
2022-11-08T11:27:23.205Z,97592.66
2022-11-08T11:32:24.673Z,97573.88
2022-11-08T11:37:25.932Z,97564.63
2022-11-08T11:47:48.525Z,97548.38
2022-11-08T11:52:49.749Z,97541.59
2022-11-08T11:57:51.116Z,97529.75
2022-11-08T12:02:52.684Z,97531.66
2022-11-08T12:07:53.910Z,97518.22
2022-11-08T12:12:55.162Z,97521.28
2022-11-08T12:17:56.374Z,97510.38
2022-11-08T12:22:57.604Z,97512.56
2022-11-08T12:27:59.078Z,97504.09
2022-11-08T12:33:00.544Z,97490.72
2022-11-08T12:38:01.746Z,97488.09
2022-11-08T12:43:02.997Z,97493.38
2022-11-08T12:48:04.208Z,97476.91
2022-11-08T12:53:05.441Z,97472.19
2022-11-08T12:58:06.680Z,97475.03
2022-11-08T13:03:07.981Z,97468.41
2022-11-08T13:08:09.225Z,97464.47
2022-11-08T13:13:10.452Z,97461.41
2022-11-08T13:18:11.677Z,97438.34
2022-11-08T13:23:12.878Z,97443.06
2022-11-08T13:28:14.125Z,97431.28
2022-11-08T13:33:15.398Z,97425.09
2022-11-08T13:38:16.990Z,97416.38
2022-11-08T13:43:18.445Z,97409.19
2022-11-08T13:48:22.389Z,97415.59
2022-11-08T13:53:23.867Z,97411.19
2022-11-08T13:58:25.077Z,97415.38
2022-11-08T14:03:26.297Z,97420.88
2022-11-08T14:08:27.548Z,97416.97
2022-11-08T14:13:28.824Z,97423.72
2022-11-08T14:18:30.123Z,97430.94
2022-11-08T14:23:31.578Z,97431.13
2022-11-08T14:28:32.809Z,97446.22
2022-11-08T14:33:34.083Z,97455.94
2022-11-08T14:38:35.355Z,97462.53
2022-11-08T14:43:36.652Z,97470.06
2022-11-08T14:48:37.909Z,97461.22
2022-11-08T14:53:39.118Z,97452.72
2022-11-08T14:58:40.397Z,97469.81
2022-11-08T15:03:41.646Z,97467.84
2022-11-08T15:08:42.858Z,97468.63
2022-11-08T15:13:44.285Z,97466.84
2022-11-08T15:18:45.613Z,97467.03
2022-11-08T15:23:47.270Z,97471.97
2022-11-08T15:28:49.969Z,97457.06
2022-11-08T15:33:51.701Z,97472.06
2022-11-08T15:38:53.036Z,97474.34
2022-11-08T15:43:54.356Z,97471.13
2022-11-08T15:48:55.687Z,97479.22
2022-11-08T15:53:57.068Z,97480.00
2022-11-08T15:58:58.320Z,97480.84
2022-11-08T16:03:59.700Z,97498.59
2022-11-08T16:09:00.995Z,97488.19
2022-11-08T16:14:02.540Z,97483.44
2022-11-08T16:19:03.781Z,97486.47
2022-11-08T16:24:05.086Z,97484.16
2022-11-08T16:29:06.317Z,97487.44
2022-11-08T16:34:07.584Z,97494.84
2022-11-08T16:39:08.930Z,97498.53
2022-11-08T16:44:10.148Z,97517.31
2022-11-08T16:49:11.402Z,97514.66
2022-11-08T16:54:12.743Z,97526.06
2022-11-08T16:59:14.880Z,97531.00
2022-11-08T17:04:16.145Z,97531.44
2022-11-08T17:09:17.553Z,97542.91
2022-11-08T17:14:18.875Z,97538.47
2022-11-08T17:19:20.402Z,97547.63
2022-11-08T17:24:22.280Z,97550.00
2022-11-08T17:29:23.585Z,97557.91
2022-11-08T17:34:24.878Z,97563.31
2022-11-08T17:39:26.256Z,97562.31
2022-11-08T17:44:27.790Z,97557.72
2022-11-08T17:49:29.017Z,97561.09
2022-11-08T17:54:30.246Z,97565.00
2022-11-08T17:59:31.457Z,97558.47
2022-11-08T18:04:32.686Z,97569.75
2022-11-08T18:09:33.950Z,97578.72
2022-11-08T18:14:38.151Z,97564.84
2022-11-08T18:19:39.438Z,97571.94
2022-11-08T18:24:41.400Z,97578.81
2022-11-08T18:29:44.899Z,97573.78
2022-11-08T18:34:46.239Z,97568.50
2022-11-08T18:39:47.479Z,97568.44
2022-11-08T18:44:48.811Z,97558.81
2022-11-08T18:49:50.033Z,97562.06
2022-11-08T18:54:51.417Z,97567.53
2022-11-08T18:59:56.097Z,97565.91
2022-11-08T19:05:00.534Z,97575.75
2022-11-08T19:10:01.884Z,97576.88
2022-11-08T19:15:03.154Z,97579.22
2022-11-08T19:20:04.443Z,97579.09
2022-11-08T19:25:05.733Z,97571.47
2022-11-08T19:30:06.987Z,97577.78
2022-11-08T19:35:08.247Z,97587.31
2022-11-08T19:40:09.450Z,97581.13
2022-11-08T19:45:10.909Z,97592.34
2022-11-08T19:50:12.126Z,97597.00
2022-11-08T19:55:16.293Z,97598.28
2022-11-08T20:00:18.227Z,97600.16
2022-11-08T20:05:19.622Z,97603.50
2022-11-08T20:10:20.950Z,97602.13
2022-11-08T20:15:25.182Z,97612.25
2022-11-08T20:20:26.405Z,97615.84
2022-11-08T20:25:27.701Z,97612.66
2022-11-08T20:30:28.957Z,97607.72
2022-11-08T20:35:30.182Z,97610.06
2022-11-08T20:40:31.454Z,97607.94
2022-11-08T20:45:32.698Z,97607.03
2022-11-08T20:50:33.929Z,97600.94
2022-11-08T20:55:35.150Z,97594.38
2022-11-08T21:00:57.295Z,97587.50
2022-11-08T21:05:57.628Z,97586.22
2022-11-08T21:10:58.949Z,97579.22
2022-11-08T21:16:14.020Z,97578.56
2022-11-08T21:21:22.434Z,97583.16
2022-11-08T21:26:23.707Z,97584.56
2022-11-08T21:31:24.945Z,97583.13
2022-11-08T21:36:29.412Z,97569.09
2022-11-08T21:41:30.706Z,97556.94
2022-11-08T21:46:32.307Z,97555.28
2022-11-08T21:51:33.570Z,97559.31
2022-11-08T21:56:34.871Z,97568.34
2022-11-08T22:01:36.288Z,97588.06
2022-11-08T22:06:45.018Z,97581.13
2022-11-08T22:11:49.065Z,97575.69
2022-11-08T22:16:50.288Z,97571.91
2022-11-08T22:21:51.577Z,97570.00
2022-11-08T22:26:52.843Z,97583.63
2022-11-08T22:31:55.049Z,97588.78
2022-11-08T22:36:56.268Z,97585.13
2022-11-08T22:41:57.520Z,97563.06
2022-11-08T22:46:58.754Z,97554.09
2022-11-08T22:52:00.089Z,97545.91
2022-11-08T22:57:01.399Z,97557.44
2022-11-08T23:02:02.719Z,97569.34
2022-11-08T23:07:04.116Z,97556.78
2022-11-08T23:12:24.304Z,97556.66
2022-11-08T23:17:25.572Z,97557.69
2022-11-08T23:22:45.874Z,97552.94
2022-11-08T23:28:06.020Z,97558.34
2022-11-08T23:33:07.256Z,97553.81
2022-11-08T23:38:08.697Z,97554.13
2022-11-08T23:43:28.883Z,97556.31
2022-11-08T23:48:30.080Z,97563.06
2022-11-08T23:53:31.427Z,97555.19
2022-11-08T23:58:32.643Z,97559.09
